Adrian, Texas
Current Conditions -  °F | °C
As of 1:15 PM on Friday 21 Nov 2014 (Local Time) from KHRX Reporting Station
Clear Clear  
Wind Chill: 60°   Ceiling: Unl
Heat Index: 60°   Visibility: 10mi
Dew Point: 37°   Wind: 3mph
Humidity: 43%   Direction: 140°SE
Pressure: 29.99"   Gusts: NA
Location:  35.27°N, 102.67°W
Report Text: KHRX 211915Z AUTO 14003KT 10SM CLR 15/03 A2999 RMK AO2 T01530028
Loading
Personal Weather Stations






























Interactive Weather Map New forecast layout! Learn more

10-Day Weather Forecast

Advertisements
Track Severe Weather on mobile